createdAt,value
2019-06-20T00:01:00.217Z,4.80
2019-06-20T00:03:30.693Z,5.77
2019-06-20T00:05:59.966Z,5.12
2019-06-20T00:08:29.434Z,5.13
2019-06-20T00:10:58.722Z,4.77
2019-06-20T00:13:27.985Z,5.17
2019-06-20T00:15:57.366Z,5.30
2019-06-20T00:18:26.641Z,5.10
2019-06-20T00:20:56.348Z,5.20
2019-06-20T00:23:25.801Z,5.40
2019-06-20T00:25:55.065Z,5.53
2019-06-20T00:28:24.353Z,5.47
2019-06-20T00:30:55.421Z,5.70
2019-06-20T00:33:24.737Z,5.67
2019-06-20T00:35:54.005Z,6.27
2019-06-20T00:38:23.332Z,6.10
2019-06-20T00:40:52.671Z,5.80
2019-06-20T00:43:21.938Z,6.60
2019-06-20T00:45:51.239Z,6.53
2019-06-20T00:48:20.519Z,6.20
2019-06-20T00:50:49.799Z,6.10
2019-06-20T00:53:19.102Z,6.40
2019-06-20T00:55:48.427Z,8.77
2019-06-20T00:58:17.739Z,5.97
2019-06-20T01:00:47.060Z,4.57
2019-06-20T01:03:16.374Z,5.17
2019-06-20T01:05:45.644Z,4.17
2019-06-20T01:08:15.960Z,3.80
2019-06-20T01:10:45.262Z,3.27
2019-06-20T01:13:14.562Z,3.27
2019-06-20T01:15:43.946Z,4.20
2019-06-20T01:18:13.358Z,3.73
2019-06-20T01:20:42.677Z,3.47
2019-06-20T01:23:11.936Z,3.40
2019-06-20T01:25:42.890Z,3.33
2019-06-20T01:28:12.210Z,3.63
2019-06-20T01:30:41.723Z,3.87
2019-06-20T01:33:11.048Z,4.60
2019-06-20T01:35:40.353Z,3.30
2019-06-20T01:38:09.652Z,4.27
2019-06-20T01:40:38.960Z,4.13
2019-06-20T01:43:15.758Z,4.00
2019-06-20T01:45:43.898Z,4.10
2019-06-20T01:48:13.222Z,4.17
2019-06-20T01:50:43.685Z,4.97
2019-06-20T01:53:12.997Z,4.97
2019-06-20T01:55:42.965Z,4.57
2019-06-20T01:58:12.270Z,4.47
2019-06-20T02:00:51.577Z,4.53
2019-06-20T02:03:21.860Z,4.53
2019-06-20T02:05:51.376Z,4.53
2019-06-20T02:08:20.675Z,4.93
2019-06-20T02:10:50.815Z,4.90
2019-06-20T02:13:20.151Z,5.23
2019-06-20T02:15:49.433Z,5.60
2019-06-20T02:18:18.727Z,4.73
2019-06-20T02:20:52.536Z,5.03
2019-06-20T02:23:22.429Z,5.10
2019-06-20T02:25:52.062Z,5.00
2019-06-20T02:28:21.930Z,5.63
2019-06-20T02:30:51.403Z,5.93
2019-06-20T02:33:20.703Z,6.13
2019-06-20T02:35:50.011Z,5.93
2019-06-20T02:38:19.303Z,6.33
2019-06-20T02:40:48.601Z,6.50
2019-06-20T02:43:17.902Z,5.47
2019-06-20T02:45:47.177Z,5.93
2019-06-20T02:48:16.605Z,5.83
2019-06-20T02:50:45.886Z,5.87
2019-06-20T02:53:15.184Z,6.67
2019-06-20T02:55:44.489Z,6.33
2019-06-20T02:58:13.742Z,5.87
2019-06-20T03:01:01.065Z,6.00
2019-06-20T03:03:30.458Z,5.80
2019-06-20T03:06:02.025Z,5.60
2019-06-20T03:08:31.483Z,5.20
2019-06-20T03:11:00.786Z,5.70
2019-06-20T03:13:30.069Z,5.57
2019-06-20T03:15:59.366Z,5.97
2019-06-20T03:18:28.624Z,5.17
2019-06-20T03:20:58.124Z,6.03
2019-06-20T03:23:27.610Z,5.53
2019-06-20T03:25:57.933Z,5.33
2019-06-20T03:28:27.225Z,4.90
2019-06-20T03:30:56.860Z,5.60
2019-06-20T03:33:26.158Z,5.60
2019-06-20T03:35:55.461Z,5.40
2019-06-20T03:38:24.763Z,4.40
2019-06-20T03:40:54.104Z,5.47
2019-06-20T03:43:23.632Z,5.37
2019-06-20T03:45:53.423Z,6.20
2019-06-20T03:48:23.829Z,6.60
2019-06-20T03:50:53.166Z,5.87
2019-06-20T03:53:23.569Z,6.13
2019-06-20T03:55:52.872Z,6.63
2019-06-20T03:58:22.164Z,7.07
2019-06-20T04:00:51.472Z,6.23
2019-06-20T04:03:21.899Z,7.07
2019-06-20T04:05:51.221Z,6.77
2019-06-20T04:08:20.561Z,6.57
2019-06-20T04:10:49.930Z,7.00
2019-06-20T04:13:20.433Z,6.13
2019-06-20T04:15:51.189Z,5.60
2019-06-20T04:18:20.486Z,5.70
2019-06-20T04:20:51.573Z,6.20
2019-06-20T04:23:20.867Z,5.80
2019-06-20T04:25:50.161Z,6.63
2019-06-20T04:28:19.505Z,6.43
2019-06-20T04:30:48.808Z,5.70
2019-06-20T04:33:18.060Z,5.83
2019-06-20T04:35:47.456Z,5.70
2019-06-20T04:38:16.782Z,6.20
2019-06-20T04:40:46.081Z,5.67
2019-06-20T04:43:15.621Z,4.97
2019-06-20T04:45:59.928Z,5.13
2019-06-20T04:48:29.267Z,5.23
2019-06-20T04:50:58.574Z,5.27
2019-06-20T04:53:27.851Z,4.80
2019-06-20T04:55:57.166Z,4.63
2019-06-20T04:58:26.438Z,4.90
2019-06-20T05:00:57.069Z,4.60
2019-06-20T05:03:27.903Z,5.53
2019-06-20T05:05:57.192Z,4.87
2019-06-20T05:08:28.790Z,6.50
2019-06-20T05:10:58.155Z,4.87
2019-06-20T05:13:27.450Z,4.57
2019-06-20T05:15:56.942Z,4.30
2019-06-20T05:18:26.324Z,4.40
2019-06-20T05:20:55.640Z,4.77
2019-06-20T05:23:24.961Z,4.53
2019-06-20T05:25:54.307Z,4.17
2019-06-20T05:28:23.667Z,4.17
2019-06-20T05:30:52.936Z,4.40
2019-06-20T05:33:23.295Z,5.07
2019-06-20T05:35:52.602Z,3.83
2019-06-20T05:38:23.482Z,4.40
2019-06-20T05:40:53.961Z,4.07
2019-06-20T05:43:23.295Z,3.80
2019-06-20T05:46:07.998Z,3.80
2019-06-20T05:48:24.012Z,4.30
2019-06-20T05:50:53.340Z,4.03
2019-06-20T05:53:22.623Z,4.10
2019-06-20T05:55:51.949Z,4.40
2019-06-20T05:58:21.292Z,4.13
2019-06-20T06:00:50.574Z,4.87
2019-06-20T06:03:21.020Z,4.97
2019-06-20T06:05:50.328Z,4.97
2019-06-20T06:08:19.773Z,4.60
2019-06-20T06:10:49.094Z,4.60
2019-06-20T06:13:18.413Z,4.90
2019-06-20T06:15:47.717Z,4.43
2019-06-20T06:18:17.009Z,3.53
2019-06-20T06:20:46.357Z,3.10
2019-06-20T06:23:15.641Z,2.63
2019-06-20T06:25:46.597Z,1.90
2019-06-20T06:28:15.911Z,2.43
2019-06-20T06:30:50.779Z,2.10
2019-06-20T06:33:20.447Z,1.20
2019-06-20T06:35:49.724Z,1.40
2019-06-20T06:38:22.045Z,1.60
2019-06-20T06:40:50.486Z,1.30
2019-06-20T06:43:19.783Z,1.37
2019-06-20T06:45:49.058Z,1.40
2019-06-20T06:48:18.398Z,1.60
2019-06-20T06:50:47.660Z,1.50
2019-06-20T06:53:16.970Z,1.30
2019-06-20T06:55:46.239Z,1.30
2019-06-20T06:58:17.007Z,1.40
2019-06-20T07:00:46.279Z,1.80
2019-06-20T07:03:15.571Z,1.83
2019-06-20T07:05:44.884Z,1.60
2019-06-20T07:08:15.958Z,1.70
2019-06-20T07:10:45.454Z,1.60
2019-06-20T07:13:14.752Z,2.10
2019-06-20T07:15:44.132Z,1.80
2019-06-20T07:18:13.452Z,1.83
2019-06-20T07:20:42.757Z,2.00
2019-06-20T07:23:12.071Z,1.70
2019-06-20T07:25:41.418Z,2.27
2019-06-20T07:28:12.201Z,2.03
2019-06-20T07:30:41.488Z,1.97
2019-06-20T07:33:12.624Z,2.03
2019-06-20T07:35:44.125Z,2.10
2019-06-20T07:38:15.969Z,2.33
2019-06-20T07:40:46.913Z,2.10
2019-06-20T07:43:16.185Z,1.80
2019-06-20T07:46:01.540Z,1.83
2019-06-20T07:48:17.617Z,2.20
2019-06-20T07:50:47.488Z,2.40
2019-06-20T07:53:17.829Z,1.27
2019-06-20T07:55:47.103Z,1.30
2019-06-20T07:58:17.721Z,1.20
2019-06-20T08:00:47.085Z,1.00
2019-06-20T08:03:16.379Z,0.90
2019-06-20T08:05:45.727Z,1.10
2019-06-20T08:08:15.029Z,1.00
2019-06-20T08:10:44.336Z,1.10
2019-06-20T08:13:13.690Z,0.97
2019-06-20T08:15:44.212Z,1.10
2019-06-20T08:18:13.521Z,0.90
2019-06-20T08:20:42.790Z,0.82
2019-06-20T08:23:12.194Z,0.72
2019-06-20T08:25:41.481Z,0.70
2019-06-20T08:28:10.809Z,0.70
2019-06-20T08:30:41.564Z,0.70
2019-06-20T08:33:13.163Z,0.72
2019-06-20T08:35:42.548Z,0.60
2019-06-20T08:38:12.961Z,1.20
2019-06-20T08:40:42.297Z,0.88
2019-06-20T08:43:11.817Z,0.90
2019-06-20T08:45:48.660Z,0.70
2019-06-20T08:48:19.670Z,0.62
2019-06-20T08:50:48.940Z,0.70
2019-06-20T08:53:19.221Z,0.60
2019-06-20T08:55:50.169Z,0.70
2019-06-20T08:58:19.458Z,0.75
2019-06-20T09:00:48.897Z,0.80
2019-06-20T09:03:29.474Z,0.70
2019-06-20T09:05:59.738Z,0.80
2019-06-20T09:08:29.133Z,0.80
2019-06-20T09:10:59.548Z,0.82
2019-06-20T09:13:29.594Z,0.98
2019-06-20T09:16:00.924Z,0.90
2019-06-20T09:18:30.538Z,0.90
2019-06-20T09:21:00.270Z,1.02
2019-06-20T09:23:29.732Z,0.72
2019-06-20T09:25:59.640Z,0.98
2019-06-20T09:28:29.026Z,1.00
2019-06-20T09:30:59.448Z,1.00
2019-06-20T09:33:28.710Z,1.05
2019-06-20T09:35:59.563Z,1.20
2019-06-20T09:38:33.380Z,1.10
2019-06-20T09:41:04.207Z,1.20
2019-06-20T09:43:34.696Z,1.00
2019-06-20T09:46:04.939Z,1.10
2019-06-20T09:48:34.342Z,1.30
2019-06-20T09:51:03.625Z,1.07
2019-06-20T09:53:32.928Z,1.20
2019-06-20T09:56:02.404Z,1.37
2019-06-20T09:58:32.458Z,1.30
2019-06-20T10:01:01.750Z,2.00
2019-06-20T10:03:31.295Z,1.30
2019-06-20T10:06:00.682Z,1.00
2019-06-20T10:08:29.965Z,1.05
2019-06-20T10:10:59.280Z,1.00
2019-06-20T10:13:32.383Z,1.02
2019-06-20T10:16:00.011Z,0.90
2019-06-20T10:18:29.378Z,0.90
2019-06-20T10:20:58.687Z,0.90
2019-06-20T10:23:27.964Z,1.02
2019-06-20T10:25:58.281Z,0.80
2019-06-20T10:28:29.359Z,0.82
2019-06-20T10:30:59.902Z,1.00
2019-06-20T10:33:29.462Z,1.00
2019-06-20T10:36:00.299Z,0.90
2019-06-20T10:38:29.995Z,0.93
2019-06-20T10:41:15.376Z,0.78
2019-06-20T10:43:45.817Z,0.90
2019-06-20T10:46:16.558Z,0.93
2019-06-20T10:48:47.994Z,0.98
2019-06-20T10:51:36.339Z,0.78
2019-06-20T10:54:06.295Z,1.00
2019-06-20T10:56:35.578Z,0.82
2019-06-20T10:59:05.100Z,1.00
2019-06-20T11:01:34.427Z,0.80
2019-06-20T11:04:03.771Z,1.10
2019-06-20T11:06:36.520Z,1.00
2019-06-20T11:09:09.438Z,0.70
2019-06-20T11:11:40.158Z,0.80
2019-06-20T11:14:10.339Z,1.25
2019-06-20T11:16:40.480Z,0.82
2019-06-20T11:19:10.684Z,0.80
2019-06-20T11:21:41.582Z,0.72
2019-06-20T11:24:10.993Z,0.80
2019-06-20T11:26:43.071Z,0.70
2019-06-20T11:29:12.493Z,0.72
2019-06-20T11:31:45.948Z,0.80
2019-06-20T11:34:12.848Z,0.80
2019-06-20T11:36:45.097Z,1.00
2019-06-20T11:39:14.511Z,1.00
2019-06-20T11:41:43.822Z,0.90
2019-06-20T11:44:13.107Z,0.98
2019-06-20T11:46:42.669Z,0.90
2019-06-20T11:49:11.975Z,1.10
2019-06-20T11:51:41.904Z,0.90
2019-06-20T11:54:11.337Z,0.80
2019-06-20T11:56:40.864Z,0.90
2019-06-20T11:59:10.181Z,0.80
2019-06-20T12:01:40.071Z,0.80
2019-06-20T12:04:16.056Z,0.80
2019-06-20T12:06:47.159Z,0.80
2019-06-20T12:09:16.561Z,0.85
2019-06-20T12:11:46.758Z,0.70
2019-06-20T12:14:16.218Z,0.70
2019-06-20T12:16:46.443Z,0.70
2019-06-20T12:19:15.841Z,0.82
2019-06-20T12:21:45.130Z,0.70
2019-06-20T12:24:14.396Z,0.75
2019-06-20T12:26:44.403Z,0.78
2019-06-20T12:29:14.859Z,0.70
2019-06-20T12:31:45.570Z,0.82
2019-06-20T12:34:15.218Z,0.90
2019-06-20T12:36:44.491Z,0.78
2019-06-20T12:39:13.794Z,0.80
2019-06-20T12:41:43.199Z,0.80
2019-06-20T12:44:12.464Z,0.93
2019-06-20T12:46:44.797Z,0.90
2019-06-20T12:49:14.140Z,0.80
2019-06-20T12:51:44.773Z,0.88
2019-06-20T12:54:14.114Z,1.00
2019-06-20T12:56:44.033Z,0.82
2019-06-20T12:59:13.391Z,0.78
2019-06-20T13:01:45.691Z,0.80
2019-06-20T13:04:13.692Z,0.80
2019-06-20T13:06:44.355Z,0.70
2019-06-20T13:09:13.655Z,0.80
2019-06-20T13:11:42.977Z,0.80
2019-06-20T13:14:12.278Z,0.93
2019-06-20T13:16:43.095Z,0.70
2019-06-20T13:19:12.378Z,0.75
2019-06-20T13:21:42.053Z,0.90
2019-06-20T13:24:11.481Z,0.68
2019-06-20T13:26:42.333Z,0.90
2019-06-20T13:29:11.751Z,0.90
2019-06-20T13:31:56.474Z,0.80
2019-06-20T13:34:12.369Z,0.90
2019-06-20T13:36:43.198Z,1.10
2019-06-20T13:39:12.520Z,0.88
2019-06-20T13:41:43.088Z,0.85
2019-06-20T13:44:14.864Z,1.07
2019-06-20T13:46:46.460Z,0.70
2019-06-20T13:49:15.876Z,0.80
2019-06-20T13:51:45.889Z,0.90
2019-06-20T13:54:15.267Z,0.90
2019-06-20T13:56:45.673Z,0.80
2019-06-20T13:59:14.943Z,1.80
2019-06-20T14:01:46.133Z,1.27
2019-06-20T14:04:15.266Z,1.00
2019-06-20T14:06:45.494Z,1.15
2019-06-20T14:09:14.926Z,1.00
2019-06-20T14:11:45.406Z,3.42
2019-06-20T14:14:14.715Z,3.87
2019-06-20T14:16:45.770Z,4.53
2019-06-20T14:19:15.076Z,3.95
2019-06-20T14:21:45.349Z,5.33
2019-06-20T14:24:14.898Z,1.80
2019-06-20T14:26:46.279Z,2.25
2019-06-20T14:29:15.503Z,2.30
2019-06-20T14:31:45.520Z,1.90
2019-06-20T14:34:14.976Z,1.40
2019-06-20T14:36:44.748Z,1.80
2019-06-20T14:39:15.596Z,2.67
2019-06-20T14:41:44.872Z,1.93
2019-06-20T14:44:14.170Z,8.43
2019-06-20T14:46:43.434Z,2.40
2019-06-20T14:49:12.728Z,1.63
2019-06-20T14:51:42.022Z,1.30
2019-06-20T14:54:12.397Z,2.70
2019-06-20T14:56:41.734Z,4.10
2019-06-20T14:59:11.000Z,5.03
2019-06-20T15:01:40.293Z,1.90
2019-06-20T15:04:09.558Z,1.57
2019-06-20T15:06:38.841Z,1.80
2019-06-20T15:09:10.987Z,3.50
2019-06-20T15:11:40.289Z,5.10
2019-06-20T15:14:09.556Z,4.10
2019-06-20T15:16:38.855Z,1.70
2019-06-20T15:19:08.184Z,1.27
2019-06-20T15:21:37.570Z,1.00
2019-06-20T15:24:06.871Z,1.10
2019-06-20T15:26:36.182Z,0.93
2019-06-20T15:29:07.286Z,0.80
2019-06-20T15:31:36.589Z,1.10
2019-06-20T15:34:06.983Z,1.07
2019-06-20T15:36:36.271Z,2.90
2019-06-20T15:39:07.197Z,1.50
2019-06-20T15:41:36.472Z,0.90
2019-06-20T15:44:05.977Z,1.40
2019-06-20T15:46:35.261Z,2.10
2019-06-20T15:49:15.761Z,7.07
2019-06-20T15:51:35.570Z,1.30
2019-06-20T15:54:06.072Z,1.70
2019-06-20T15:56:35.376Z,1.40
2019-06-20T15:59:04.728Z,1.40
2019-06-20T16:01:33.991Z,1.33
2019-06-20T16:04:03.290Z,1.80
2019-06-20T16:06:32.620Z,1.50
2019-06-20T16:09:01.916Z,1.40
2019-06-20T16:11:31.213Z,1.13
2019-06-20T16:14:00.502Z,1.07
2019-06-20T16:16:29.877Z,1.50
2019-06-20T16:18:59.212Z,1.50
2019-06-20T16:21:28.512Z,1.40
2019-06-20T16:23:57.954Z,1.93
2019-06-20T16:26:27.262Z,1.80
2019-06-20T16:28:56.555Z,4.50
2019-06-20T16:31:34.661Z,1.37
2019-06-20T16:34:03.970Z,1.50
2019-06-20T16:36:33.658Z,1.80
2019-06-20T16:39:02.924Z,1.70
2019-06-20T16:41:32.249Z,1.57
2019-06-20T16:44:01.548Z,1.60
2019-06-20T16:46:30.883Z,1.60
2019-06-20T16:49:01.980Z,1.90
2019-06-20T16:51:31.323Z,1.40
2019-06-20T16:54:01.604Z,1.70
2019-06-20T16:56:47.731Z,2.07
2019-06-20T16:59:17.015Z,1.53
2019-06-20T17:01:46.278Z,1.50
2019-06-20T17:04:15.551Z,1.40
2019-06-20T17:06:44.814Z,1.60
2019-06-20T17:09:14.157Z,1.77
2019-06-20T17:11:51.045Z,2.30
2019-06-20T17:14:28.764Z,2.27
2019-06-20T17:16:58.036Z,2.47
2019-06-20T17:19:27.312Z,1.63
2019-06-20T17:21:56.632Z,2.10
2019-06-20T17:24:25.880Z,2.03
2019-06-20T17:26:56.233Z,2.03
2019-06-20T17:29:25.536Z,1.70
2019-06-20T17:31:57.418Z,1.40
2019-06-20T17:34:25.950Z,2.20
2019-06-20T17:36:55.328Z,2.53
2019-06-20T17:39:24.812Z,2.50
2019-06-20T17:41:55.402Z,2.07
2019-06-20T17:44:27.519Z,3.07
2019-06-20T17:46:57.060Z,2.53
2019-06-20T17:49:26.764Z,2.77
2019-06-20T17:51:56.067Z,2.73
2019-06-20T17:54:25.424Z,2.10
2019-06-20T17:56:55.825Z,1.90
2019-06-20T17:59:25.235Z,2.10
2019-06-20T18:01:54.518Z,2.10
2019-06-20T18:04:26.694Z,2.27
2019-06-20T18:06:54.796Z,2.03
2019-06-20T18:09:24.240Z,1.73
2019-06-20T18:11:53.530Z,1.83
2019-06-20T18:14:23.977Z,1.57
2019-06-20T18:16:53.278Z,3.20
2019-06-20T18:19:29.709Z,1.70
2019-06-20T18:21:58.201Z,1.57
2019-06-20T18:24:27.503Z,1.90
2019-06-20T18:26:56.843Z,1.70
2019-06-20T18:29:26.141Z,1.80
2019-06-20T18:31:55.439Z,2.43
2019-06-20T18:34:29.983Z,2.23
2019-06-20T18:36:55.749Z,2.60
2019-06-20T18:39:25.005Z,2.33
2019-06-20T18:41:55.254Z,2.67
2019-06-20T18:44:24.744Z,2.60
2019-06-20T18:46:56.345Z,2.47
2019-06-20T18:49:25.650Z,2.27
2019-06-20T18:51:54.909Z,2.87
2019-06-20T18:54:24.414Z,2.83
2019-06-20T18:56:54.867Z,3.00
2019-06-20T18:59:24.199Z,2.63
2019-06-20T19:01:56.172Z,4.20
2019-06-20T19:04:25.494Z,3.30
2019-06-20T19:06:54.791Z,3.33
2019-06-20T19:09:24.085Z,3.60
2019-06-20T19:11:53.525Z,3.27
2019-06-20T19:14:22.835Z,7.13
2019-06-20T19:16:52.861Z,7.83
2019-06-20T19:19:22.180Z,4.40
2019-06-20T19:21:52.276Z,5.47
2019-06-20T19:24:21.550Z,3.60
2019-06-20T19:26:52.633Z,6.67
2019-06-20T19:29:23.238Z,3.90
2019-06-20T19:31:56.392Z,4.97
2019-06-20T19:34:26.018Z,4.33
2019-06-20T19:36:55.362Z,4.70
2019-06-20T19:39:28.025Z,4.77
2019-06-20T19:42:20.411Z,4.00
2019-06-20T19:44:47.881Z,4.77
2019-06-20T19:47:20.894Z,5.10
2019-06-20T19:49:55.652Z,5.20
2019-06-20T19:52:28.203Z,4.70
2019-06-20T19:55:01.961Z,10.60
2019-06-20T19:57:34.745Z,4.47
2019-06-20T20:00:18.544Z,5.07
2019-06-20T20:02:51.249Z,5.10
2019-06-20T20:05:20.681Z,6.87
2019-06-20T20:07:50.166Z,4.80
2019-06-20T20:10:28.314Z,6.10
2019-06-20T20:13:00.175Z,5.47
2019-06-20T20:15:29.576Z,5.80
2019-06-20T20:17:58.879Z,5.00
2019-06-20T20:20:28.468Z,5.57
2019-06-20T20:23:07.962Z,5.53
2019-06-20T20:25:37.789Z,7.03
2019-06-20T20:28:07.082Z,14.87
2019-06-20T20:30:36.357Z,10.03
2019-06-20T20:33:05.993Z,7.80
2019-06-20T20:35:36.133Z,15.27
2019-06-20T20:38:05.992Z,8.67
2019-06-20T20:40:35.246Z,13.67
2019-06-20T20:43:04.661Z,6.73
2019-06-20T20:45:33.994Z,5.83
2019-06-20T20:48:03.272Z,6.57
2019-06-20T20:50:32.630Z,6.07
2019-06-20T20:53:01.901Z,5.50
2019-06-20T20:55:31.198Z,6.83
2019-06-20T20:58:00.487Z,7.53
2019-06-20T21:00:35.124Z,6.63
2019-06-20T21:03:07.342Z,6.73
2019-06-20T21:05:50.665Z,6.57
2019-06-20T21:08:08.548Z,6.43
2019-06-20T21:10:37.860Z,7.53
2019-06-20T21:13:07.164Z,6.53
2019-06-20T21:15:36.468Z,6.73
2019-06-20T21:18:05.758Z,6.53
2019-06-20T21:20:35.026Z,7.60
2019-06-20T21:23:04.314Z,7.70
2019-06-20T21:25:33.576Z,6.20
2019-06-20T21:28:02.897Z,7.70
2019-06-20T21:30:32.501Z,6.70
2019-06-20T21:33:03.816Z,6.83
2019-06-20T21:35:33.507Z,7.33
2019-06-20T21:38:03.598Z,7.07
2019-06-20T21:40:32.877Z,7.07
2019-06-20T21:43:02.141Z,7.30
2019-06-20T21:45:33.332Z,6.60
2019-06-20T21:48:02.623Z,7.40
2019-06-20T21:50:32.835Z,7.33
2019-06-20T21:53:02.111Z,8.27
2019-06-20T21:55:31.386Z,7.73
2019-06-20T21:58:00.755Z,7.63
2019-06-20T22:00:39.066Z,7.57
2019-06-20T22:03:09.336Z,8.30
2019-06-20T22:05:40.246Z,6.83
2019-06-20T22:08:10.002Z,7.43
2019-06-20T22:10:39.467Z,7.40
2019-06-20T22:13:08.828Z,7.47
2019-06-20T22:15:39.360Z,8.30
2019-06-20T22:18:09.027Z,8.80
2019-06-20T22:20:38.870Z,8.50
2019-06-20T22:23:08.142Z,8.33
2019-06-20T22:25:38.223Z,7.83
2019-06-20T22:28:14.760Z,6.67
2019-06-20T22:30:47.999Z,7.37
2019-06-20T22:33:17.260Z,7.60
2019-06-20T22:35:46.656Z,7.30
2019-06-20T22:38:15.902Z,6.70
2019-06-20T22:40:45.496Z,6.80
2019-06-20T22:43:14.807Z,6.80
2019-06-20T22:45:44.225Z,6.77
2019-06-20T22:48:13.976Z,6.17
2019-06-20T22:50:43.480Z,6.50
2019-06-20T22:53:12.799Z,5.83
2019-06-20T22:55:42.132Z,6.97
2019-06-20T22:58:12.631Z,6.10
2019-06-20T23:00:41.943Z,6.00
2019-06-20T23:03:11.286Z,6.17
2019-06-20T23:05:40.683Z,6.10
2019-06-20T23:08:22.746Z,6.67
2019-06-20T23:10:52.043Z,6.03
2019-06-20T23:13:21.509Z,6.67
2019-06-20T23:15:50.788Z,6.93
2019-06-20T23:18:20.090Z,6.43
2019-06-20T23:21:03.993Z,5.70
2019-06-20T23:23:20.469Z,6.10
2019-06-20T23:25:52.278Z,6.20
2019-06-20T23:28:23.074Z,6.23
2019-06-20T23:30:52.458Z,6.17
2019-06-20T23:33:21.727Z,5.93
2019-06-20T23:35:51.019Z,5.70
2019-06-20T23:38:20.321Z,6.20
2019-06-20T23:40:49.617Z,6.97
2019-06-20T23:43:18.925Z,6.17
2019-06-20T23:45:48.264Z,7.87
2019-06-20T23:48:17.482Z,7.83
2019-06-20T23:50:46.890Z,7.67
2019-06-20T23:53:20.901Z,7.60
2019-06-20T23:55:50.211Z,7.57
2019-06-20T23:58:19.490Z,8.40
